createdAt,value
2022-12-05T00:04:00.944Z,30.20
2022-12-05T00:09:04.188Z,31.80
2022-12-05T00:14:08.672Z,33.50
2022-12-05T00:19:13.559Z,31.90
2022-12-05T00:24:16.734Z,36.80
2022-12-05T00:29:18.738Z,30.30
2022-12-05T00:34:23.189Z,31.60
2022-12-05T00:39:25.009Z,30.30
2022-12-05T00:44:26.844Z,28.40
2022-12-05T00:49:28.993Z,30.20
2022-12-05T00:54:30.920Z,28.80
2022-12-05T00:59:32.726Z,27.50
2022-12-05T01:04:34.547Z,27.30
2022-12-05T01:09:36.392Z,26.50
2022-12-05T01:14:38.343Z,25.10
2022-12-05T01:19:40.257Z,26.50
2022-12-05T01:24:42.124Z,32.10
2022-12-05T01:29:43.987Z,26.90
2022-12-05T01:34:45.920Z,26.70
2022-12-05T01:39:49.145Z,27.70
2022-12-05T01:44:51.006Z,24.50
2022-12-05T01:49:52.906Z,34.30
2022-12-05T01:55:00.188Z,30.40
2022-12-05T02:00:10.173Z,29.00
2022-12-05T02:05:21.191Z,29.80
2022-12-05T02:10:23.460Z,29.80
2022-12-05T02:15:50.027Z,27.80
2022-12-05T02:21:33.553Z,31.40
2022-12-05T02:26:54.905Z,29.30
2022-12-05T02:32:21.535Z,31.70
2022-12-05T02:37:30.644Z,25.30
2022-12-05T02:43:00.272Z,32.00
2022-12-05T02:48:03.964Z,28.20
2022-12-05T02:53:11.707Z,27.60
2022-12-05T02:58:21.729Z,29.20
2022-12-05T03:03:24.861Z,27.30
2022-12-05T03:08:32.256Z,36.50
2022-12-05T03:13:52.330Z,26.80
2022-12-05T03:18:59.957Z,27.50
2022-12-05T03:24:06.887Z,25.60
2022-12-05T03:29:43.142Z,28.60
2022-12-05T03:35:11.742Z,29.00
2022-12-05T03:40:52.877Z,29.20
2022-12-05T03:46:06.827Z,21.30
2022-12-05T03:51:13.578Z,25.00
2022-12-05T03:56:21.323Z,24.30
2022-12-05T04:01:25.830Z,24.70
2022-12-05T04:06:37.241Z,20.80
2022-12-05T04:11:44.168Z,24.90
2022-12-05T04:17:03.586Z,25.50
2022-12-05T04:22:05.483Z,21.60
2022-12-05T04:27:25.419Z,28.10
2022-12-05T04:32:31.175Z,27.40
2022-12-05T04:37:37.438Z,24.70
2022-12-05T04:42:42.780Z,28.40
2022-12-05T04:47:50.370Z,25.00
2022-12-05T04:52:55.455Z,23.40
2022-12-05T04:58:07.867Z,30.10
2022-12-05T05:03:45.122Z,26.40
2022-12-05T05:08:52.372Z,24.10
2022-12-05T05:13:54.433Z,27.30
2022-12-05T05:18:56.908Z,28.40
2022-12-05T05:23:59.708Z,29.10
2022-12-05T05:29:02.524Z,30.40
2022-12-05T05:34:09.442Z,28.80
2022-12-05T05:39:15.432Z,28.30
2022-12-05T05:44:17.500Z,29.70
2022-12-05T05:49:19.352Z,28.90
2022-12-05T05:54:21.186Z,31.90
2022-12-05T05:59:23.221Z,32.40
2022-12-05T06:04:25.119Z,37.20
2022-12-05T06:09:27.307Z,34.10
2022-12-05T06:14:29.173Z,33.20
2022-12-05T06:19:31.006Z,34.90
2022-12-05T06:24:32.878Z,33.50
2022-12-05T06:29:35.902Z,35.50
2022-12-05T06:34:37.836Z,36.70
2022-12-05T06:39:39.817Z,35.60
2022-12-05T06:44:41.657Z,38.90
2022-12-05T06:49:43.501Z,35.30
2022-12-05T06:54:46.929Z,38.90
2022-12-05T06:59:48.875Z,39.50
2022-12-05T07:04:50.707Z,36.00
2022-12-05T07:09:53.962Z,40.40
2022-12-05T07:14:55.815Z,40.90
2022-12-05T07:19:57.831Z,39.50
2022-12-05T07:24:59.881Z,35.80
2022-12-05T07:30:02.096Z,47.80
2022-12-05T07:35:04.479Z,44.80
2022-12-05T07:40:06.976Z,43.30
2022-12-05T07:45:09.560Z,44.40
2022-12-05T07:50:11.607Z,41.50
2022-12-05T07:55:13.420Z,46.50
2022-12-05T08:00:15.895Z,41.10
2022-12-05T08:05:17.726Z,49.70
2022-12-05T08:10:19.590Z,41.00
2022-12-05T08:15:21.483Z,43.10
2022-12-05T08:20:23.445Z,37.30
2022-12-05T08:25:25.426Z,40.90
2022-12-05T08:30:27.387Z,37.80
2022-12-05T08:35:29.443Z,38.30
2022-12-05T08:40:31.404Z,39.00
2022-12-05T08:45:33.244Z,31.80
2022-12-05T08:50:35.060Z,30.50
2022-12-05T08:55:37.927Z,34.00
2022-12-05T09:00:40.734Z,34.10
2022-12-05T09:05:42.693Z,40.30
2022-12-05T09:10:44.505Z,37.70
2022-12-05T09:15:46.390Z,31.30
2022-12-05T09:20:48.180Z,33.90
2022-12-05T09:25:56.219Z,39.20
2022-12-05T09:31:01.427Z,37.60
2022-12-05T09:36:08.535Z,36.20
2022-12-05T09:41:13.455Z,33.90
2022-12-05T09:46:54.329Z,31.80
2022-12-05T09:51:58.612Z,34.40
2022-12-05T09:57:01.813Z,33.00
2022-12-05T10:02:15.652Z,36.60
2022-12-05T10:07:30.580Z,36.10
2022-12-05T10:13:00.046Z,35.90
2022-12-05T10:18:24.292Z,44.90
2022-12-05T10:23:56.663Z,44.60
2022-12-05T10:29:04.460Z,35.90
2022-12-05T10:34:17.547Z,43.50
2022-12-05T10:39:19.517Z,34.90
2022-12-05T10:44:21.270Z,37.70
2022-12-05T10:49:24.396Z,33.50
2022-12-05T10:54:30.419Z,39.90
2022-12-05T10:59:46.486Z,37.20
2022-12-05T11:04:49.316Z,33.80
2022-12-05T11:09:52.129Z,38.80
2022-12-05T11:14:59.690Z,34.80
2022-12-05T11:20:03.008Z,38.40
2022-12-05T11:25:29.062Z,40.30
2022-12-05T11:30:30.955Z,48.90
2022-12-05T11:35:32.811Z,37.80
2022-12-05T11:40:50.018Z,43.40
2022-12-05T11:46:07.428Z,52.70
2022-12-05T11:51:36.797Z,52.20
2022-12-05T11:56:43.864Z,50.70
2022-12-05T12:01:48.483Z,45.60
2022-12-05T12:07:25.014Z,42.90
2022-12-05T12:12:55.026Z,52.10
2022-12-05T12:18:24.219Z,47.80
2022-12-05T12:23:37.226Z,56.70
2022-12-05T12:28:46.423Z,56.30
2022-12-05T12:34:05.063Z,51.70
2022-12-05T12:39:40.724Z,50.30
2022-12-05T12:45:05.245Z,57.60
2022-12-05T12:50:16.226Z,45.40
2022-12-05T12:55:21.160Z,56.40
2022-12-05T13:00:48.258Z,53.00
2022-12-05T13:06:29.774Z,56.20
2022-12-05T13:11:39.101Z,55.20
2022-12-05T13:16:46.301Z,58.90
2022-12-05T13:21:48.619Z,62.60
2022-12-05T13:26:50.912Z,52.50
2022-12-05T13:31:53.112Z,67.60
2022-12-05T13:37:16.299Z,63.50
2022-12-05T13:42:37.886Z,66.80
2022-12-05T13:47:59.603Z,70.00
2022-12-05T13:53:07.680Z,73.10
2022-12-05T13:58:18.706Z,76.00
2022-12-05T14:03:32.909Z,72.90
2022-12-05T14:08:52.493Z,75.60
2022-12-05T14:13:58.019Z,74.60
2022-12-05T14:19:16.727Z,73.00
2022-12-05T14:24:43.875Z,74.60
2022-12-05T14:29:54.753Z,72.30
2022-12-05T14:35:02.826Z,72.40
2022-12-05T14:40:32.381Z,75.10
2022-12-05T14:45:40.487Z,68.70
2022-12-05T14:50:48.096Z,71.50
2022-12-05T14:55:55.569Z,75.40
2022-12-05T15:01:01.121Z,81.40
2022-12-05T15:06:06.528Z,81.80
2022-12-05T15:11:28.099Z,80.60
2022-12-05T15:16:31.698Z,94.80
2022-12-05T15:21:41.380Z,86.20
2022-12-05T15:26:56.620Z,93.60
2022-12-05T15:32:02.395Z,83.90
2022-12-05T15:37:15.708Z,84.30
2022-12-05T15:42:17.772Z,86.80
2022-12-05T15:47:24.736Z,80.50
2022-12-05T15:52:42.793Z,78.40
2022-12-05T15:57:50.401Z,80.20
2022-12-05T16:02:59.432Z,81.00
2022-12-05T16:08:06.104Z,76.90
2022-12-05T16:13:14.242Z,75.00
2022-12-05T16:18:29.616Z,92.20
2022-12-05T16:23:37.512Z,97.90
2022-12-05T16:28:39.586Z,148.40
2022-12-05T16:33:43.685Z,151.30
2022-12-05T16:38:47.064Z,151.80
2022-12-05T16:43:49.269Z,135.00
2022-12-05T16:49:20.509Z,141.50
2022-12-05T16:54:22.270Z,152.90
2022-12-05T16:59:31.287Z,138.70
2022-12-05T17:04:33.341Z,137.60
2022-12-05T17:09:35.175Z,127.70
2022-12-05T17:14:36.937Z,104.40
2022-12-05T17:19:38.666Z,126.90
2022-12-05T17:24:40.391Z,114.70
2022-12-05T17:29:42.140Z,109.00
2022-12-05T17:34:43.982Z,110.90
2022-12-05T17:39:45.735Z,110.70
2022-12-05T17:44:47.465Z,113.10
2022-12-05T17:49:49.450Z,122.40
2022-12-05T17:54:51.181Z,131.40
2022-12-05T17:59:53.194Z,129.40
2022-12-05T18:04:55.014Z,135.40
2022-12-05T18:09:56.766Z,131.90
2022-12-05T18:14:58.669Z,130.80
2022-12-05T18:20:00.703Z,126.70
2022-12-05T18:25:03.586Z,126.90
2022-12-05T18:30:07.050Z,123.00
2022-12-05T18:35:12.843Z,114.00
2022-12-05T18:40:15.098Z,116.70
2022-12-05T18:45:16.848Z,104.50
2022-12-05T18:50:18.660Z,114.20
2022-12-05T18:55:31.032Z,104.30
2022-12-05T19:00:40.228Z,100.00
2022-12-05T19:05:43.340Z,104.00
2022-12-05T19:10:45.106Z,122.90
2022-12-05T19:15:46.974Z,107.10
2022-12-05T19:20:50.870Z,102.30
2022-12-05T19:25:59.544Z,96.70
2022-12-05T19:31:07.103Z,97.50
2022-12-05T19:36:12.266Z,104.70
2022-12-05T19:41:16.401Z,110.10
2022-12-05T19:46:21.092Z,117.00
2022-12-05T19:51:23.654Z,118.30
2022-12-05T19:56:26.861Z,165.30
2022-12-05T20:01:31.501Z,117.60
2022-12-05T20:06:39.349Z,113.70
2022-12-05T20:11:43.826Z,111.50
2022-12-05T20:16:45.831Z,106.10
2022-12-05T20:21:47.721Z,107.30
2022-12-05T20:26:49.630Z,95.80
2022-12-05T20:31:54.277Z,107.70
2022-12-05T20:36:56.248Z,111.10
2022-12-05T20:41:58.120Z,133.60
2022-12-05T20:46:59.864Z,162.40
2022-12-05T20:52:01.732Z,152.30
2022-12-05T20:57:03.703Z,143.30
2022-12-05T21:02:05.556Z,130.80
2022-12-05T21:07:07.696Z,120.70
2022-12-05T21:12:09.466Z,132.20
2022-12-05T21:17:13.817Z,135.30
2022-12-05T21:22:15.826Z,130.70
2022-12-05T21:27:17.715Z,127.60
2022-12-05T21:32:19.471Z,136.50
2022-12-05T21:37:21.256Z,122.60
2022-12-05T21:42:23.042Z,130.90
2022-12-05T21:47:25.048Z,129.30
2022-12-05T21:52:26.807Z,125.20
2022-12-05T21:57:32.031Z,134.50
2022-12-05T22:02:33.905Z,122.40
2022-12-05T22:07:35.712Z,138.00
2022-12-05T22:12:46.240Z,128.90
2022-12-05T22:17:48.491Z,134.00
2022-12-05T22:22:50.644Z,133.20
2022-12-05T22:27:55.318Z,133.40
2022-12-05T22:32:57.589Z,147.50
2022-12-05T22:37:59.331Z,144.90
2022-12-05T22:43:01.077Z,147.10
2022-12-05T22:48:08.488Z,146.60
2022-12-05T22:53:10.415Z,148.90
2022-12-05T22:58:12.361Z,142.20
2022-12-05T23:03:15.346Z,145.20
2022-12-05T23:08:17.275Z,146.50
2022-12-05T23:13:19.346Z,128.70
2022-12-05T23:18:21.508Z,149.10
2022-12-05T23:23:23.430Z,141.50
2022-12-05T23:28:25.397Z,150.60
2022-12-05T23:33:27.592Z,161.30
2022-12-05T23:38:29.694Z,160.10
2022-12-05T23:43:33.304Z,147.90
2022-12-05T23:48:35.240Z,155.00
2022-12-05T23:53:39.727Z,177.30
2022-12-05T23:58:42.032Z,108.20
